sensor_id;sensor_type;location;lat;lon;timestamp;P1;durP1;ratioP1;P2;durP2;ratioP2
22650;SDS011;11492;42.646;23.400;2023-02-26T00:00:45;26.85;;;5.63;;
22650;SDS011;11492;42.646;23.400;2023-02-26T00:03:11;22.52;;;5.85;;
22650;SDS011;11492;42.646;23.400;2023-02-26T00:05:36;27.08;;;5.93;;
22650;SDS011;11492;42.646;23.400;2023-02-26T00:08:02;19.05;;;5.20;;
22650;SDS011;11492;42.646;23.400;2023-02-26T00:10:30;36.40;;;5.78;;
22650;SDS011;11492;42.646;23.400;2023-02-26T00:12:56;28.02;;;5.63;;
22650;SDS011;11492;42.646;23.400;2023-02-26T00:15:22;31.05;;;6.15;;
22650;SDS011;11492;42.646;23.400;2023-02-26T00:17:49;28.77;;;5.88;;
22650;SDS011;11492;42.646;23.400;2023-02-26T00:20:22;30.20;;;5.63;;
22650;SDS011;11492;42.646;23.400;2023-02-26T00:22:48;20.10;;;5.35;;
22650;SDS011;11492;42.646;23.400;2023-02-26T00:25:14;26.23;;;5.82;;
22650;SDS011;11492;42.646;23.400;2023-02-26T00:27:39;21.85;;;5.28;;
22650;SDS011;11492;42.646;23.400;2023-02-26T00:30:06;28.60;;;5.38;;
22650;SDS011;11492;42.646;23.400;2023-02-26T00:32:33;25.92;;;5.80;;
22650;SDS011;11492;42.646;23.400;2023-02-26T00:34:59;35.22;;;5.82;;
22650;SDS011;11492;42.646;23.400;2023-02-26T00:37:45;20.70;;;4.97;;
22650;SDS011;11492;42.646;23.400;2023-02-26T00:42:44;32.60;;;4.90;;
22650;SDS011;11492;42.646;23.400;2023-02-26T00:45:10;27.10;;;5.32;;
22650;SDS011;11492;42.646;23.400;2023-02-26T00:47:40;26.52;;;5.53;;
22650;SDS011;11492;42.646;23.400;2023-02-26T00:53:28;20.35;;;5.07;;
22650;SDS011;11492;42.646;23.400;2023-02-26T00:55:38;22.65;;;5.00;;
22650;SDS011;11492;42.646;23.400;2023-02-26T00:58:03;16.98;;;4.53;;
22650;SDS011;11492;42.646;23.400;2023-02-26T01:00:29;26.67;;;4.95;;
22650;SDS011;11492;42.646;23.400;2023-02-26T01:02:54;28.95;;;5.00;;
22650;SDS011;11492;42.646;23.400;2023-02-26T01:05:20;20.77;;;4.90;;
22650;SDS011;11492;42.646;23.400;2023-02-26T01:07:48;26.10;;;5.35;;
22650;SDS011;11492;42.646;23.400;2023-02-26T01:10:35;22.48;;;5.25;;
22650;SDS011;11492;42.646;23.400;2023-02-26T01:13:01;20.58;;;5.25;;
22650;SDS011;11492;42.646;23.400;2023-02-26T01:15:27;26.85;;;5.35;;
22650;SDS011;11492;42.646;23.400;2023-02-26T01:17:54;35.40;;;5.00;;
22650;SDS011;11492;42.646;23.400;2023-02-26T01:20:27;24.23;;;5.18;;
22650;SDS011;11492;42.646;23.400;2023-02-26T01:23:00;28.70;;;4.82;;
22650;SDS011;11492;42.646;23.400;2023-02-26T01:25:39;21.60;;;4.60;;
22650;SDS011;11492;42.646;23.400;2023-02-26T01:28:08;17.55;;;4.72;;
22650;SDS011;11492;42.646;23.400;2023-02-26T01:30:34;26.45;;;4.70;;
22650;SDS011;11492;42.646;23.400;2023-02-26T01:35:51;29.52;;;5.10;;
22650;SDS011;11492;42.646;23.400;2023-02-26T01:38:30;30.40;;;4.70;;
22650;SDS011;11492;42.646;23.400;2023-02-26T01:51:17;29.98;;;4.82;;
22650;SDS011;11492;42.646;23.400;2023-02-26T01:54:03;21.10;;;5.03;;
22650;SDS011;11492;42.646;23.400;2023-02-26T01:56:28;26.55;;;4.88;;
22650;SDS011;11492;42.646;23.400;2023-02-26T01:58:54;39.85;;;4.68;;
22650;SDS011;11492;42.646;23.400;2023-02-26T02:01:19;27.73;;;4.90;;
22650;SDS011;11492;42.646;23.400;2023-02-26T02:03:45;19.75;;;4.53;;
22650;SDS011;11492;42.646;23.400;2023-02-26T02:06:18;24.67;;;4.05;;
22650;SDS011;11492;42.646;23.400;2023-02-26T02:08:46;33.05;;;5.18;;
22650;SDS011;11492;42.646;23.400;2023-02-26T02:11:12;23.80;;;4.75;;
22650;SDS011;11492;42.646;23.400;2023-02-26T02:27:30;26.38;;;4.65;;
22650;SDS011;11492;42.646;23.400;2023-02-26T02:33:05;26.77;;;4.65;;
22650;SDS011;11492;42.646;23.400;2023-02-26T02:35:43;34.75;;;4.97;;
22650;SDS011;11492;42.646;23.400;2023-02-26T02:38:18;29.13;;;5.00;;
22650;SDS011;11492;42.646;23.400;2023-02-26T02:40:52;25.92;;;4.47;;
22650;SDS011;11492;42.646;23.400;2023-02-26T02:43:24;21.33;;;4.50;;
22650;SDS011;11492;42.646;23.400;2023-02-26T02:45:55;24.83;;;5.20;;
22650;SDS011;11492;42.646;23.400;2023-02-26T02:48:25;31.63;;;4.65;;
22650;SDS011;11492;42.646;23.400;2023-02-26T02:50:59;32.67;;;4.47;;
22650;SDS011;11492;42.646;23.400;2023-02-26T02:53:45;17.17;;;4.35;;
22650;SDS011;11492;42.646;23.400;2023-02-26T02:56:15;25.48;;;3.95;;
22650;SDS011;11492;42.646;23.400;2023-02-26T02:58:46;16.20;;;3.95;;
22650;SDS011;11492;42.646;23.400;2023-02-26T03:01:18;27.02;;;4.47;;
22650;SDS011;11492;42.646;23.400;2023-02-26T03:06:36;34.33;;;4.50;;
22650;SDS011;11492;42.646;23.400;2023-02-26T03:09:03;18.02;;;4.15;;
22650;SDS011;11492;42.646;23.400;2023-02-26T03:11:30;20.65;;;4.00;;
22650;SDS011;11492;42.646;23.400;2023-02-26T03:13:56;21.98;;;4.22;;
22650;SDS011;11492;42.646;23.400;2023-02-26T03:19:14;24.00;;;4.43;;
22650;SDS011;11492;42.646;23.400;2023-02-26T03:21:59;19.55;;;3.90;;
22650;SDS011;11492;42.646;23.400;2023-02-26T03:24:36;28.40;;;4.00;;
22650;SDS011;11492;42.646;23.400;2023-02-26T03:29:55;28.90;;;4.78;;
22650;SDS011;11492;42.646;23.400;2023-02-26T03:32:28;22.65;;;4.55;;
22650;SDS011;11492;42.646;23.400;2023-02-26T03:37:42;23.27;;;3.95;;
22650;SDS011;11492;42.646;23.400;2023-02-26T03:42:59;21.50;;;4.38;;
22650;SDS011;11492;42.646;23.400;2023-02-26T03:45:34;36.60;;;4.35;;
22650;SDS011;11492;42.646;23.400;2023-02-26T03:48:03;25.60;;;3.97;;
22650;SDS011;11492;42.646;23.400;2023-02-26T03:50:42;25.92;;;4.03;;
22650;SDS011;11492;42.646;23.400;2023-02-26T03:53:12;21.45;;;4.32;;
22650;SDS011;11492;42.646;23.400;2023-02-26T03:55:43;25.02;;;4.00;;
22650;SDS011;11492;42.646;23.400;2023-02-26T03:58:16;21.05;;;4.78;;
22650;SDS011;11492;42.646;23.400;2023-02-26T04:00:43;21.45;;;4.28;;
22650;SDS011;11492;42.646;23.400;2023-02-26T04:05:51;25.58;;;4.05;;
22650;SDS011;11492;42.646;23.400;2023-02-26T04:08:19;13.82;;;3.80;;
22650;SDS011;11492;42.646;23.400;2023-02-26T04:10:47;26.98;;;3.63;;
22650;SDS011;11492;42.646;23.400;2023-02-26T04:13:21;31.65;;;5.07;;
22650;SDS011;11492;42.646;23.400;2023-02-26T04:15:46;30.80;;;5.15;;
22650;SDS011;11492;42.646;23.400;2023-02-26T04:18:12;21.35;;;4.38;;
22650;SDS011;11492;42.646;23.400;2023-02-26T04:20:37;22.50;;;4.13;;
22650;SDS011;11492;42.646;23.400;2023-02-26T04:23:03;18.52;;;3.88;;
22650;SDS011;11492;42.646;23.400;2023-02-26T04:25:28;17.45;;;4.40;;
22650;SDS011;11492;42.646;23.400;2023-02-26T04:27:54;31.55;;;5.15;;
22650;SDS011;11492;42.646;23.400;2023-02-26T04:30:20;27.90;;;4.75;;
22650;SDS011;11492;42.646;23.400;2023-02-26T04:32:45;22.85;;;4.05;;
22650;SDS011;11492;42.646;23.400;2023-02-26T04:35:11;28.27;;;4.07;;
22650;SDS011;11492;42.646;23.400;2023-02-26T04:37:36;21.63;;;3.92;;
22650;SDS011;11492;42.646;23.400;2023-02-26T04:40:02;35.92;;;4.63;;
22650;SDS011;11492;42.646;23.400;2023-02-26T04:42:28;29.10;;;4.40;;
22650;SDS011;11492;42.646;23.400;2023-02-26T04:44:54;25.83;;;4.38;;
22650;SDS011;11492;42.646;23.400;2023-02-26T04:47:19;31.90;;;4.82;;
22650;SDS011;11492;42.646;23.400;2023-02-26T04:49:45;24.67;;;4.43;;
22650;SDS011;11492;42.646;23.400;2023-02-26T04:52:10;25.10;;;4.10;;
22650;SDS011;11492;42.646;23.400;2023-02-26T04:54:35;25.50;;;4.65;;
22650;SDS011;11492;42.646;23.400;2023-02-26T04:57:02;27.45;;;4.18;;
22650;SDS011;11492;42.646;23.400;2023-02-26T04:59:27;23.17;;;4.00;;
22650;SDS011;11492;42.646;23.400;2023-02-26T05:01:53;18.92;;;3.83;;
22650;SDS011;11492;42.646;23.400;2023-02-26T05:04:18;32.30;;;4.82;;
22650;SDS011;11492;42.646;23.400;2023-02-26T05:06:44;32.88;;;4.53;;
22650;SDS011;11492;42.646;23.400;2023-02-26T05:09:09;19.63;;;4.25;;
22650;SDS011;11492;42.646;23.400;2023-02-26T05:11:35;21.70;;;3.95;;
22650;SDS011;11492;42.646;23.400;2023-02-26T05:14:00;24.95;;;4.88;;
22650;SDS011;11492;42.646;23.400;2023-02-26T05:16:25;23.50;;;4.10;;
22650;SDS011;11492;42.646;23.400;2023-02-26T05:18:51;27.70;;;4.00;;
22650;SDS011;11492;42.646;23.400;2023-02-26T05:21:16;38.83;;;4.30;;
22650;SDS011;11492;42.646;23.400;2023-02-26T05:23:42;30.75;;;5.03;;
22650;SDS011;11492;42.646;23.400;2023-02-26T05:26:07;21.13;;;4.35;;
22650;SDS011;11492;42.646;23.400;2023-02-26T05:28:33;41.83;;;4.70;;
22650;SDS011;11492;42.646;23.400;2023-02-26T05:31:00;25.15;;;3.75;;
22650;SDS011;11492;42.646;23.400;2023-02-26T05:33:26;31.52;;;5.15;;
22650;SDS011;11492;42.646;23.400;2023-02-26T05:35:51;37.65;;;5.28;;
22650;SDS011;11492;42.646;23.400;2023-02-26T05:38:17;33.08;;;4.72;;
22650;SDS011;11492;42.646;23.400;2023-02-26T05:40:42;27.52;;;5.03;;
22650;SDS011;11492;42.646;23.400;2023-02-26T05:43:08;47.55;;;5.43;;
22650;SDS011;11492;42.646;23.400;2023-02-26T05:45:33;33.08;;;4.45;;
22650;SDS011;11492;42.646;23.400;2023-02-26T05:47:59;31.20;;;4.25;;
22650;SDS011;11492;42.646;23.400;2023-02-26T05:50:24;32.30;;;5.88;;
22650;SDS011;11492;42.646;23.400;2023-02-26T05:52:50;32.22;;;4.40;;
22650;SDS011;11492;42.646;23.400;2023-02-26T05:55:16;36.33;;;4.32;;
22650;SDS011;11492;42.646;23.400;2023-02-26T05:57:41;41.75;;;4.53;;
22650;SDS011;11492;42.646;23.400;2023-02-26T06:00:07;32.95;;;4.10;;
22650;SDS011;11492;42.646;23.400;2023-02-26T06:02:33;33.58;;;4.93;;
22650;SDS011;11492;42.646;23.400;2023-02-26T06:04:59;27.02;;;4.38;;
22650;SDS011;11492;42.646;23.400;2023-02-26T06:07:24;32.10;;;4.82;;
22650;SDS011;11492;42.646;23.400;2023-02-26T06:09:49;28.13;;;4.72;;
22650;SDS011;11492;42.646;23.400;2023-02-26T06:12:15;38.55;;;4.45;;
22650;SDS011;11492;42.646;23.400;2023-02-26T06:14:40;30.05;;;4.90;;
22650;SDS011;11492;42.646;23.400;2023-02-26T06:17:06;34.53;;;4.30;;
22650;SDS011;11492;42.646;23.400;2023-02-26T06:19:32;36.38;;;5.90;;
22650;SDS011;11492;42.646;23.400;2023-02-26T06:21:57;31.65;;;5.13;;
22650;SDS011;11492;42.646;23.400;2023-02-26T06:24:23;38.63;;;5.53;;
22650;SDS011;11492;42.646;23.400;2023-02-26T06:26:49;31.92;;;5.43;;
22650;SDS011;11492;42.646;23.400;2023-02-26T06:29:14;32.97;;;4.90;;
22650;SDS011;11492;42.646;23.400;2023-02-26T06:31:42;31.42;;;4.97;;
22650;SDS011;11492;42.646;23.400;2023-02-26T06:34:08;30.88;;;4.18;;
22650;SDS011;11492;42.646;23.400;2023-02-26T06:36:33;40.05;;;4.93;;
22650;SDS011;11492;42.646;23.400;2023-02-26T06:38:59;31.38;;;4.55;;
22650;SDS011;11492;42.646;23.400;2023-02-26T06:41:24;45.47;;;5.40;;
22650;SDS011;11492;42.646;23.400;2023-02-26T06:43:50;35.13;;;5.10;;
22650;SDS011;11492;42.646;23.400;2023-02-26T06:46:15;44.22;;;4.95;;
22650;SDS011;11492;42.646;23.400;2023-02-26T06:48:40;47.80;;;5.93;;
22650;SDS011;11492;42.646;23.400;2023-02-26T06:51:06;36.50;;;5.05;;
22650;SDS011;11492;42.646;23.400;2023-02-26T06:53:31;36.38;;;4.45;;
22650;SDS011;11492;42.646;23.400;2023-02-26T06:55:57;28.88;;;4.45;;
22650;SDS011;11492;42.646;23.400;2023-02-26T06:58:22;32.85;;;5.03;;
22650;SDS011;11492;42.646;23.400;2023-02-26T07:00:48;22.73;;;3.97;;
22650;SDS011;11492;42.646;23.400;2023-02-26T07:03:14;39.33;;;4.90;;
22650;SDS011;11492;42.646;23.400;2023-02-26T07:05:41;24.80;;;3.70;;
22650;SDS011;11492;42.646;23.400;2023-02-26T07:08:06;32.78;;;4.70;;
22650;SDS011;11492;42.646;23.400;2023-02-26T07:10:33;28.38;;;4.40;;
22650;SDS011;11492;42.646;23.400;2023-02-26T07:13:00;33.97;;;4.53;;
22650;SDS011;11492;42.646;23.400;2023-02-26T07:15:25;51.72;;;5.07;;
22650;SDS011;11492;42.646;23.400;2023-02-26T07:17:51;35.53;;;4.32;;
22650;SDS011;11492;42.646;23.400;2023-02-26T07:20:16;35.80;;;3.45;;
22650;SDS011;11492;42.646;23.400;2023-02-26T07:22:42;45.22;;;5.45;;
22650;SDS011;11492;42.646;23.400;2023-02-26T07:25:09;37.35;;;4.93;;
22650;SDS011;11492;42.646;23.400;2023-02-26T07:27:35;32.17;;;4.97;;
22650;SDS011;11492;42.646;23.400;2023-02-26T07:30:01;31.75;;;4.47;;
22650;SDS011;11492;42.646;23.400;2023-02-26T07:32:28;35.28;;;4.38;;
22650;SDS011;11492;42.646;23.400;2023-02-26T07:34:53;26.35;;;4.10;;
22650;SDS011;11492;42.646;23.400;2023-02-26T07:37:19;41.80;;;5.10;;
22650;SDS011;11492;42.646;23.400;2023-02-26T07:39:44;35.70;;;5.35;;
22650;SDS011;11492;42.646;23.400;2023-02-26T07:42:10;32.17;;;4.32;;
22650;SDS011;11492;42.646;23.400;2023-02-26T07:44:35;33.85;;;4.13;;
22650;SDS011;11492;42.646;23.400;2023-02-26T07:47:00;45.45;;;4.97;;
22650;SDS011;11492;42.646;23.400;2023-02-26T07:49:26;33.17;;;4.93;;
22650;SDS011;11492;42.646;23.400;2023-02-26T07:51:51;39.03;;;5.10;;
22650;SDS011;11492;42.646;23.400;2023-02-26T07:54:17;25.65;;;4.03;;
22650;SDS011;11492;42.646;23.400;2023-02-26T07:56:43;36.15;;;4.72;;
22650;SDS011;11492;42.646;23.400;2023-02-26T07:59:09;31.50;;;5.40;;
22650;SDS011;11492;42.646;23.400;2023-02-26T08:01:35;29.88;;;3.60;;
22650;SDS011;11492;42.646;23.400;2023-02-26T08:04:01;33.50;;;4.80;;
22650;SDS011;11492;42.646;23.400;2023-02-26T08:06:27;23.40;;;4.35;;
22650;SDS011;11492;42.646;23.400;2023-02-26T08:08:53;27.05;;;4.32;;
22650;SDS011;11492;42.646;23.400;2023-02-26T08:11:19;32.72;;;4.70;;
22650;SDS011;11492;42.646;23.400;2023-02-26T08:13:44;56.30;;;5.38;;
22650;SDS011;11492;42.646;23.400;2023-02-26T08:16:10;33.72;;;4.30;;
22650;SDS011;11492;42.646;23.400;2023-02-26T08:18:35;25.80;;;4.60;;
22650;SDS011;11492;42.646;23.400;2023-02-26T08:21:01;27.73;;;5.65;;
22650;SDS011;11492;42.646;23.400;2023-02-26T08:23:26;27.20;;;4.10;;
22650;SDS011;11492;42.646;23.400;2023-02-26T08:25:59;29.33;;;4.18;;
22650;SDS011;11492;42.646;23.400;2023-02-26T08:28:32;41.25;;;4.70;;
22650;SDS011;11492;42.646;23.400;2023-02-26T08:30:58;33.78;;;4.68;;
22650;SDS011;11492;42.646;23.400;2023-02-26T08:33:24;31.80;;;4.40;;
22650;SDS011;11492;42.646;23.400;2023-02-26T08:35:50;36.58;;;4.78;;
22650;SDS011;11492;42.646;23.400;2023-02-26T08:38:15;36.22;;;4.22;;
22650;SDS011;11492;42.646;23.400;2023-02-26T08:40:41;29.00;;;4.35;;
22650;SDS011;11492;42.646;23.400;2023-02-26T08:43:07;40.13;;;5.13;;
22650;SDS011;11492;42.646;23.400;2023-02-26T08:45:33;25.33;;;3.83;;
22650;SDS011;11492;42.646;23.400;2023-02-26T08:47:59;37.58;;;4.85;;
22650;SDS011;11492;42.646;23.400;2023-02-26T08:50:25;41.20;;;4.25;;
22650;SDS011;11492;42.646;23.400;2023-02-26T08:52:51;21.38;;;3.85;;
22650;SDS011;11492;42.646;23.400;2023-02-26T08:55:17;22.77;;;3.45;;
22650;SDS011;11492;42.646;23.400;2023-02-26T08:57:42;39.47;;;4.57;;
22650;SDS011;11492;42.646;23.400;2023-02-26T09:00:08;43.03;;;4.70;;
22650;SDS011;11492;42.646;23.400;2023-02-26T09:02:35;40.22;;;5.03;;
22650;SDS011;11492;42.646;23.400;2023-02-26T09:05:03;29.17;;;4.40;;
22650;SDS011;11492;42.646;23.400;2023-02-26T09:07:29;20.73;;;3.35;;
22650;SDS011;11492;42.646;23.400;2023-02-26T09:09:54;40.85;;;5.30;;
22650;SDS011;11492;42.646;23.400;2023-02-26T09:12:20;30.63;;;4.80;;
22650;SDS011;11492;42.646;23.400;2023-02-26T09:14:46;34.42;;;4.60;;
22650;SDS011;11492;42.646;23.400;2023-02-26T09:17:11;45.03;;;4.93;;
22650;SDS011;11492;42.646;23.400;2023-02-26T09:19:36;30.75;;;4.45;;
22650;SDS011;11492;42.646;23.400;2023-02-26T09:22:02;42.88;;;5.28;;
22650;SDS011;11492;42.646;23.400;2023-02-26T09:24:28;25.05;;;4.03;;
22650;SDS011;11492;42.646;23.400;2023-02-26T09:26:53;26.00;;;5.15;;
22650;SDS011;11492;42.646;23.400;2023-02-26T09:29:19;36.88;;;4.20;;
22650;SDS011;11492;42.646;23.400;2023-02-26T09:31:44;41.10;;;4.97;;
22650;SDS011;11492;42.646;23.400;2023-02-26T09:34:10;33.53;;;4.57;;
22650;SDS011;11492;42.646;23.400;2023-02-26T09:36:36;38.65;;;5.22;;
22650;SDS011;11492;42.646;23.400;2023-02-26T09:39:02;14.23;;;2.70;;
22650;SDS011;11492;42.646;23.400;2023-02-26T09:41:33;44.45;;;10.70;;
22650;SDS011;11492;42.646;23.400;2023-02-26T09:46:52;29.33;;;3.92;;
22650;SDS011;11492;42.646;23.400;2023-02-26T09:55:00;31.77;;;4.20;;
22650;SDS011;11492;42.646;23.400;2023-02-26T09:59:56;22.67;;;4.05;;
22650;SDS011;11492;42.646;23.400;2023-02-26T10:02:31;37.33;;;5.28;;
22650;SDS011;11492;42.646;23.400;2023-02-26T10:10:39;23.35;;;4.05;;
22650;SDS011;11492;42.646;23.400;2023-02-26T10:13:14;31.27;;;4.53;;
22650;SDS011;11492;42.646;23.400;2023-02-26T10:15:46;17.90;;;3.67;;
22650;SDS011;11492;42.646;23.400;2023-02-26T10:18:25;15.27;;;3.20;;
22650;SDS011;11492;42.646;23.400;2023-02-26T10:20:55;26.65;;;3.83;;
22650;SDS011;11492;42.646;23.400;2023-02-26T10:35:08;17.52;;;3.25;;
22650;SDS011;11492;42.646;23.400;2023-02-26T10:37:44;22.38;;;4.00;;
22650;SDS011;11492;42.646;23.400;2023-02-26T10:51:39;18.80;;;3.70;;
22650;SDS011;11492;42.646;23.400;2023-02-26T10:54:21;33.90;;;3.60;;
22650;SDS011;11492;42.646;23.400;2023-02-26T10:56:49;26.23;;;4.30;;
22650;SDS011;11492;42.646;23.400;2023-02-26T10:59:15;28.20;;;4.25;;
22650;SDS011;11492;42.646;23.400;2023-02-26T11:01:40;27.35;;;4.22;;
22650;SDS011;11492;42.646;23.400;2023-02-26T11:04:10;20.95;;;3.42;;
22650;SDS011;11492;42.646;23.400;2023-02-26T11:06:40;18.27;;;3.67;;
22650;SDS011;11492;42.646;23.400;2023-02-26T11:09:30;19.80;;;3.95;;
22650;SDS011;11492;42.646;23.400;2023-02-26T11:14:36;43.72;;;15.85;;
22650;SDS011;11492;42.646;23.400;2023-02-26T11:17:03;24.88;;;4.30;;
22650;SDS011;11492;42.646;23.400;2023-02-26T11:19:35;26.13;;;4.65;;
22650;SDS011;11492;42.646;23.400;2023-02-26T11:22:03;18.88;;;6.15;;
22650;SDS011;11492;42.646;23.400;2023-02-26T11:24:37;21.08;;;3.75;;
22650;SDS011;11492;42.646;23.400;2023-02-26T11:27:06;32.28;;;4.57;;
22650;SDS011;11492;42.646;23.400;2023-02-26T11:29:41;22.40;;;3.63;;
22650;SDS011;11492;42.646;23.400;2023-02-26T11:32:21;25.85;;;4.00;;
22650;SDS011;11492;42.646;23.400;2023-02-26T11:34:53;25.58;;;4.15;;
22650;SDS011;11492;42.646;23.400;2023-02-26T11:37:19;22.17;;;4.40;;
22650;SDS011;11492;42.646;23.400;2023-02-26T11:39:49;24.85;;;3.90;;
22650;SDS011;11492;42.646;23.400;2023-02-26T11:42:28;20.42;;;3.35;;
22650;SDS011;11492;42.646;23.400;2023-02-26T11:44:53;26.13;;;3.97;;
22650;SDS011;11492;42.646;23.400;2023-02-26T11:47:25;30.95;;;3.72;;
22650;SDS011;11492;42.646;23.400;2023-02-26T11:52:28;30.50;;;3.95;;
22650;SDS011;11492;42.646;23.400;2023-02-26T11:54:59;22.60;;;3.92;;
22650;SDS011;11492;42.646;23.400;2023-02-26T11:57:27;33.22;;;4.75;;
22650;SDS011;11492;42.646;23.400;2023-02-26T11:59:55;32.75;;;4.78;;
22650;SDS011;11492;42.646;23.400;2023-02-26T12:02:24;21.35;;;3.88;;
22650;SDS011;11492;42.646;23.400;2023-02-26T12:04:56;15.43;;;2.85;;
22650;SDS011;11492;42.646;23.400;2023-02-26T12:07:25;26.08;;;4.40;;
22650;SDS011;11492;42.646;23.400;2023-02-26T12:09:51;26.70;;;4.03;;
22650;SDS011;11492;42.646;23.400;2023-02-26T12:24:33;16.58;;;3.75;;
22650;SDS011;11492;42.646;23.400;2023-02-26T12:28:00;30.55;;;4.82;;
22650;SDS011;11492;42.646;23.400;2023-02-26T12:30:08;30.38;;;5.03;;
22650;SDS011;11492;42.646;23.400;2023-02-26T12:32:49;30.25;;;4.75;;
22650;SDS011;11492;42.646;23.400;2023-02-26T12:35:31;32.88;;;5.28;;
22650;SDS011;11492;42.646;23.400;2023-02-26T12:38:19;22.52;;;5.32;;
22650;SDS011;11492;42.646;23.400;2023-02-26T12:43:55;34.17;;;6.03;;
22650;SDS011;11492;42.646;23.400;2023-02-26T12:52:15;33.28;;;5.72;;
22650;SDS011;11492;42.646;23.400;2023-02-26T13:08:01;42.90;;;7.13;;
22650;SDS011;11492;42.646;23.400;2023-02-26T13:13:18;39.63;;;5.78;;
22650;SDS011;11492;42.646;23.400;2023-02-26T13:20:58;36.17;;;6.32;;
22650;SDS011;11492;42.646;23.400;2023-02-26T13:23:35;41.25;;;7.45;;
22650;SDS011;11492;42.646;23.400;2023-02-26T13:26:07;31.63;;;6.78;;
22650;SDS011;11492;42.646;23.400;2023-02-26T13:28:55;34.47;;;7.10;;
22650;SDS011;11492;42.646;23.400;2023-02-26T13:31:32;39.67;;;6.43;;
22650;SDS011;11492;42.646;23.400;2023-02-26T13:34:08;42.88;;;6.95;;
22650;SDS011;11492;42.646;23.400;2023-02-26T13:36:39;47.05;;;7.10;;
22650;SDS011;11492;42.646;23.400;2023-02-26T13:40:10;34.42;;;6.28;;
22650;SDS011;11492;42.646;23.400;2023-02-26T13:42:05;35.40;;;6.30;;
22650;SDS011;11492;42.646;23.400;2023-02-26T13:50:29;33.60;;;6.32;;
22650;SDS011;11492;42.646;23.400;2023-02-26T13:53:33;31.20;;;6.18;;
22650;SDS011;11492;42.646;23.400;2023-02-26T13:58:43;33.88;;;6.80;;
22650;SDS011;11492;42.646;23.400;2023-02-26T14:01:17;55.17;;;6.57;;
22650;SDS011;11492;42.646;23.400;2023-02-26T14:03:46;43.28;;;6.22;;
22650;SDS011;11492;42.646;23.400;2023-02-26T14:14:43;35.50;;;6.45;;
22650;SDS011;11492;42.646;23.400;2023-02-26T14:17:30;66.10;;;9.25;;
22650;SDS011;11492;42.646;23.400;2023-02-26T14:23:33;93.78;;;19.85;;
22650;SDS011;11492;42.646;23.400;2023-02-26T14:25:37;94.00;;;18.45;;
22650;SDS011;11492;42.646;23.400;2023-02-26T14:28:19;61.38;;;8.75;;
22650;SDS011;11492;42.646;23.400;2023-02-26T14:39:23;49.63;;;7.93;;
22650;SDS011;11492;42.646;23.400;2023-02-26T14:41:51;49.88;;;9.68;;
22650;SDS011;11492;42.646;23.400;2023-02-26T14:44:24;70.13;;;13.63;;
22650;SDS011;11492;42.646;23.400;2023-02-26T14:46:52;64.80;;;9.98;;
22650;SDS011;11492;42.646;23.400;2023-02-26T14:49:26;56.42;;;9.55;;
22650;SDS011;11492;42.646;23.400;2023-02-26T14:58:01;67.40;;;7.93;;
22650;SDS011;11492;42.646;23.400;2023-02-26T15:12:28;58.97;;;9.05;;
22650;SDS011;11492;42.646;23.400;2023-02-26T15:15:20;68.68;;;8.88;;
22650;SDS011;11492;42.646;23.400;2023-02-26T15:18:08;69.70;;;9.18;;
22650;SDS011;11492;42.646;23.400;2023-02-26T15:26:03;62.40;;;8.98;;
22650;SDS011;11492;42.646;23.400;2023-02-26T15:28:34;71.03;;;9.05;;
22650;SDS011;11492;42.646;23.400;2023-02-26T15:31:03;51.22;;;7.78;;
22650;SDS011;11492;42.646;23.400;2023-02-26T15:33:31;52.55;;;7.57;;
22650;SDS011;11492;42.646;23.400;2023-02-26T15:35:58;57.13;;;8.20;;
22650;SDS011;11492;42.646;23.400;2023-02-26T15:38:25;60.78;;;8.48;;
22650;SDS011;11492;42.646;23.400;2023-02-26T15:40:52;46.33;;;8.02;;
22650;SDS011;11492;42.646;23.400;2023-02-26T15:43:24;51.58;;;9.00;;
22650;SDS011;11492;42.646;23.400;2023-02-26T15:45:53;40.10;;;7.85;;
22650;SDS011;11492;42.646;23.400;2023-02-26T15:48:25;49.97;;;8.68;;
22650;SDS011;11492;42.646;23.400;2023-02-26T15:50:58;49.60;;;8.55;;
22650;SDS011;11492;42.646;23.400;2023-02-26T15:56:04;74.88;;;9.35;;
22650;SDS011;11492;42.646;23.400;2023-02-26T15:58:34;52.88;;;7.47;;
22650;SDS011;11492;42.646;23.400;2023-02-26T16:01:04;53.45;;;7.53;;
22650;SDS011;11492;42.646;23.400;2023-02-26T16:03:31;45.25;;;8.32;;
22650;SDS011;11492;42.646;23.400;2023-02-26T16:05:59;45.47;;;6.10;;
22650;SDS011;11492;42.646;23.400;2023-02-26T16:08:24;31.98;;;6.53;;
22650;SDS011;11492;42.646;23.400;2023-02-26T16:10:51;36.92;;;6.13;;
22650;SDS011;11492;42.646;23.400;2023-02-26T16:13:22;35.50;;;5.88;;
22650;SDS011;11492;42.646;23.400;2023-02-26T16:15:57;46.58;;;8.50;;
22650;SDS011;11492;42.646;23.400;2023-02-26T16:18:25;45.13;;;7.40;;
22650;SDS011;11492;42.646;23.400;2023-02-26T16:20:52;56.65;;;8.27;;
22650;SDS011;11492;42.646;23.400;2023-02-26T16:23:23;51.13;;;7.00;;
22650;SDS011;11492;42.646;23.400;2023-02-26T16:26:03;45.47;;;6.07;;
22650;SDS011;11492;42.646;23.400;2023-02-26T16:28:35;55.15;;;8.05;;
22650;SDS011;11492;42.646;23.400;2023-02-26T16:31:13;48.28;;;7.75;;
22650;SDS011;11492;42.646;23.400;2023-02-26T16:33:41;53.35;;;7.93;;
22650;SDS011;11492;42.646;23.400;2023-02-26T16:36:19;61.97;;;8.32;;
22650;SDS011;11492;42.646;23.400;2023-02-26T16:38:49;53.58;;;8.18;;
22650;SDS011;11492;42.646;23.400;2023-02-26T16:41:22;106.32;;;39.05;;
22650;SDS011;11492;42.646;23.400;2023-02-26T16:43:53;62.10;;;10.38;;
22650;SDS011;11492;42.646;23.400;2023-02-26T16:49:22;53.10;;;11.25;;
22650;SDS011;11492;42.646;23.400;2023-02-26T16:51:50;59.33;;;10.95;;
22650;SDS011;11492;42.646;23.400;2023-02-26T16:54:29;56.58;;;11.30;;
22650;SDS011;11492;42.646;23.400;2023-02-26T16:57:03;83.43;;;12.90;;
22650;SDS011;11492;42.646;23.400;2023-02-26T16:59:46;71.57;;;22.17;;
22650;SDS011;11492;42.646;23.400;2023-02-26T17:02:22;62.45;;;12.88;;
22650;SDS011;11492;42.646;23.400;2023-02-26T17:04:51;61.03;;;12.30;;
22650;SDS011;11492;42.646;23.400;2023-02-26T17:07:24;59.75;;;10.48;;
22650;SDS011;11492;42.646;23.400;2023-02-26T17:10:08;66.20;;;11.43;;
22650;SDS011;11492;42.646;23.400;2023-02-26T17:13:00;57.00;;;10.13;;
22650;SDS011;11492;42.646;23.400;2023-02-26T17:15:29;50.08;;;7.72;;
22650;SDS011;11492;42.646;23.400;2023-02-26T17:17:59;49.78;;;8.27;;
22650;SDS011;11492;42.646;23.400;2023-02-26T17:20:25;62.50;;;9.80;;
22650;SDS011;11492;42.646;23.400;2023-02-26T17:22:53;46.97;;;9.48;;
22650;SDS011;11492;42.646;23.400;2023-02-26T17:25:20;55.97;;;8.68;;
22650;SDS011;11492;42.646;23.400;2023-02-26T17:27:49;69.82;;;10.07;;
22650;SDS011;11492;42.646;23.400;2023-02-26T17:30:18;64.40;;;10.15;;
22650;SDS011;11492;42.646;23.400;2023-02-26T17:32:46;66.93;;;11.35;;
22650;SDS011;11492;42.646;23.400;2023-02-26T17:35:16;52.65;;;11.27;;
22650;SDS011;11492;42.646;23.400;2023-02-26T17:37:43;56.53;;;10.35;;
22650;SDS011;11492;42.646;23.400;2023-02-26T17:40:21;55.83;;;11.90;;
22650;SDS011;11492;42.646;23.400;2023-02-26T17:42:55;57.60;;;11.55;;
22650;SDS011;11492;42.646;23.400;2023-02-26T17:45:22;53.15;;;11.32;;
22650;SDS011;11492;42.646;23.400;2023-02-26T17:47:47;45.28;;;10.02;;
22650;SDS011;11492;42.646;23.400;2023-02-26T17:52:46;61.70;;;10.93;;